createdAt,value
2023-05-09T00:10:27.835Z,6.27
2023-05-09T00:15:32.434Z,6.21
2023-05-09T00:20:49.733Z,6.13
2023-05-09T00:37:42.203Z,5.86
2023-05-09T00:42:46.100Z,5.79
2023-05-09T00:48:40.840Z,5.71
2023-05-09T00:54:10.345Z,5.61
2023-05-09T01:06:49.337Z,5.47
2023-05-09T01:12:31.749Z,5.41
2023-05-09T01:17:54.174Z,5.31
2023-05-09T01:23:47.522Z,5.18
2023-05-09T01:29:34.160Z,5.06
2023-05-09T01:35:32.277Z,4.95
2023-05-09T01:40:39.175Z,4.86
2023-05-09T01:45:45.338Z,4.79
2023-05-09T01:50:49.658Z,4.71
2023-05-09T02:10:36.103Z,4.49
2023-05-09T02:22:48.482Z,6.35
2023-05-09T02:29:08.660Z,8.96
2023-05-09T02:34:13.926Z,9.39
2023-05-09T02:39:17.781Z,7.87
2023-05-09T02:44:21.513Z,6.86
2023-05-09T02:49:31.986Z,6.14
2023-05-09T02:56:14.435Z,5.55
2023-05-09T03:02:51.213Z,5.05
2023-05-09T03:09:12.375Z,4.67
2023-05-09T03:14:16.303Z,4.43
2023-05-09T03:26:10.653Z,5.15
2023-05-09T03:31:14.410Z,8.24
2023-05-09T03:36:18.392Z,9.74
2023-05-09T03:50:07.915Z,6.94
2023-05-09T03:55:12.629Z,6.34
2023-05-09T04:01:03.477Z,6.01
2023-05-09T04:06:58.013Z,5.80
2023-05-09T04:19:34.009Z,5.68
2023-05-09T04:24:37.740Z,5.69
2023-05-09T04:30:23.031Z,5.74
2023-05-09T04:36:04.803Z,5.94
2023-05-09T04:41:09.068Z,6.15
2023-05-09T04:47:34.861Z,6.35
2023-05-09T04:53:16.673Z,6.64
2023-05-09T04:58:21.277Z,6.95
2023-05-09T05:03:41.025Z,7.23
2023-05-09T05:23:34.067Z,8.59
2023-05-09T05:33:09.192Z,9.27
2023-05-09T05:38:13.876Z,9.67
2023-05-09T05:43:26.678Z,10.07
2023-05-09T05:56:01.442Z,11.10
2023-05-09T06:01:23.734Z,11.48
2023-05-09T06:06:28.311Z,11.89
2023-05-09T06:11:51.458Z,12.28
2023-05-09T06:24:23.897Z,13.19
2023-05-09T06:29:55.381Z,13.53
2023-05-09T06:34:59.193Z,13.84
2023-05-09T06:40:39.265Z,14.17
2023-05-09T06:46:08.478Z,14.52
2023-05-09T06:58:05.408Z,15.21
2023-05-09T07:03:34.321Z,15.43
2023-05-09T07:08:38.467Z,15.57
2023-05-09T07:15:39.664Z,15.86
2023-05-09T07:21:35.283Z,16.18
2023-05-09T07:26:40.510Z,16.37
2023-05-09T07:33:05.777Z,16.53
2023-05-09T07:38:11.924Z,16.69
2023-05-09T07:57:40.254Z,17.23
2023-05-09T08:03:44.753Z,17.22
2023-05-09T08:10:07.265Z,17.35
2023-05-09T08:16:09.217Z,17.45
2023-05-09T08:21:40.940Z,17.41
2023-05-09T08:26:45.470Z,17.50
2023-05-09T08:32:52.122Z,17.55
2023-05-09T08:38:21.625Z,17.60
2023-05-09T08:50:45.037Z,18.50
2023-05-09T08:56:14.206Z,18.32
2023-05-09T09:01:49.044Z,18.45
2023-05-09T09:07:19.674Z,18.36
2023-05-09T09:13:07.518Z,18.49
2023-05-09T09:18:28.661Z,18.58
2023-05-09T09:24:17.962Z,18.88
2023-05-09T09:29:29.134Z,19.04
2023-05-09T09:34:33.526Z,19.38
2023-05-09T09:39:56.797Z,19.24
2023-05-09T09:45:04.549Z,19.10
2023-05-09T09:50:13.909Z,19.34
2023-05-09T09:56:47.060Z,19.48
2023-05-09T10:02:25.188Z,19.77
2023-05-09T10:07:38.854Z,19.51
2023-05-09T10:13:26.837Z,19.53
2023-05-09T10:18:31.997Z,19.63
2023-05-09T10:24:03.025Z,19.67
2023-05-09T10:29:13.094Z,19.57
2023-05-09T10:34:58.709Z,19.55
2023-05-09T10:41:20.054Z,19.48
2023-05-09T10:47:14.685Z,19.65
2023-05-09T10:52:24.851Z,19.98
2023-05-09T10:57:55.475Z,19.86
2023-05-09T11:03:11.120Z,19.52
2023-05-09T11:08:33.595Z,19.72
2023-05-09T11:21:12.138Z,19.83
2023-05-09T11:26:17.073Z,19.86
2023-05-09T11:31:35.029Z,20.18
2023-05-09T11:37:10.274Z,20.16
2023-05-09T11:49:17.601Z,19.84
2023-05-09T11:55:14.699Z,20.08
2023-05-09T12:00:26.741Z,20.45
2023-05-09T12:05:56.513Z,20.50
2023-05-09T12:11:10.102Z,20.44
2023-05-09T12:16:47.230Z,20.46
2023-05-09T12:23:12.986Z,20.17
2023-05-09T12:28:18.700Z,20.41
2023-05-09T12:33:25.793Z,20.57
2023-05-09T12:38:31.247Z,20.57
2023-05-09T12:43:39.974Z,20.55
2023-05-09T12:48:45.173Z,20.35
2023-05-09T12:53:53.290Z,20.44
2023-05-09T12:58:59.130Z,20.59
2023-05-09T13:04:07.138Z,20.58
2023-05-09T13:09:13.273Z,20.44
2023-05-09T13:14:22.375Z,20.52
2023-05-09T13:19:26.361Z,20.50
2023-05-09T13:31:36.210Z,20.51
2023-05-09T13:36:42.269Z,20.45
2023-05-09T13:41:46.219Z,20.63
2023-05-09T13:54:10.368Z,20.48
2023-05-09T14:06:18.745Z,20.74
2023-05-09T14:12:14.846Z,20.74
2023-05-09T14:17:49.494Z,20.58
2023-05-09T14:24:16.522Z,20.49
2023-05-09T14:54:36.859Z,20.80
2023-05-09T14:59:40.945Z,21.93
2023-05-09T15:04:45.334Z,23.38
2023-05-09T15:18:28.896Z,24.27
2023-05-09T15:23:32.532Z,24.35
2023-05-09T15:28:36.793Z,24.86
2023-05-09T15:34:31.193Z,24.82
2023-05-09T15:39:36.046Z,24.97
2023-05-09T15:44:44.038Z,25.51
2023-05-09T15:49:48.151Z,25.71
2023-05-09T15:55:17.364Z,25.52
2023-05-09T16:00:21.929Z,25.05
2023-05-09T16:16:25.035Z,24.66
2023-05-09T16:22:44.855Z,24.45
2023-05-09T16:28:02.513Z,23.99
2023-05-09T16:33:14.723Z,23.58
2023-05-09T16:38:19.369Z,23.21
2023-05-09T16:43:23.180Z,23.07
2023-05-09T16:55:42.542Z,22.04
2023-05-09T17:00:54.364Z,21.71
2023-05-09T17:05:58.388Z,21.52
2023-05-09T17:11:02.214Z,21.27
2023-05-09T17:24:21.914Z,19.48
2023-05-09T17:29:46.153Z,18.50
2023-05-09T17:35:15.367Z,17.87
2023-05-09T17:40:55.248Z,17.43
2023-05-09T17:46:00.592Z,17.07
2023-05-09T18:00:15.031Z,16.43
2023-05-09T18:05:19.714Z,16.16
2023-05-09T18:10:49.636Z,15.97
2023-05-09T18:15:55.297Z,15.77
2023-05-09T18:21:01.297Z,15.57
2023-05-09T18:34:40.001Z,15.16
2023-05-09T18:48:16.016Z,14.58
2023-05-09T18:53:20.774Z,14.33
2023-05-09T18:59:16.646Z,14.13
2023-05-09T19:12:51.380Z,13.73
2023-05-09T19:19:17.121Z,13.51
2023-05-09T19:38:44.241Z,12.78
2023-05-09T19:44:40.715Z,12.61
2023-05-09T19:49:45.178Z,12.41
2023-05-09T20:09:56.072Z,11.76
2023-05-09T20:15:02.742Z,11.57
2023-05-09T20:34:36.379Z,11.01
2023-05-09T20:47:08.177Z,10.72
2023-05-09T21:02:57.544Z,10.33
2023-05-09T21:15:07.544Z,9.99
2023-05-09T21:20:11.944Z,9.83
2023-05-09T21:33:04.518Z,9.48
2023-05-09T21:39:34.651Z,9.34
2023-05-09T21:44:38.720Z,9.20
2023-05-09T21:56:31.757Z,8.92
2023-05-09T22:02:01.017Z,8.81
2023-05-09T22:07:45.777Z,8.71
2023-05-09T22:21:03.186Z,8.46
2023-05-09T22:27:09.168Z,8.33
2023-05-09T22:39:17.176Z,8.06
2023-05-09T22:44:47.551Z,7.96
2023-05-09T22:57:13.027Z,7.72
2023-05-09T23:10:24.339Z,7.48
2023-05-09T23:16:18.282Z,7.41
2023-05-09T23:36:05.688Z,7.03
2023-05-09T23:41:13.097Z,6.97
2023-05-09T23:46:17.231Z,6.89
2023-05-09T23:51:22.791Z,6.83
